sensor_id;sensor_type;location;lat;lon;timestamp;P1;durP1;ratioP1;P2;durP2;ratioP2
30617;SDS011;17384;51.214;9.202;2023-03-14T00:01:00;1.63;;;1.38;;
30617;SDS011;17384;51.214;9.202;2023-03-14T00:03:32;3.05;;;1.27;;
30617;SDS011;17384;51.214;9.202;2023-03-14T00:06:01;3.42;;;1.50;;
30617;SDS011;17384;51.214;9.202;2023-03-14T00:08:28;3.50;;;1.20;;
30617;SDS011;17384;51.214;9.202;2023-03-14T00:10:53;4.57;;;1.20;;
30617;SDS011;17384;51.214;9.202;2023-03-14T00:13:19;1.88;;;1.23;;
30617;SDS011;17384;51.214;9.202;2023-03-14T00:15:44;3.10;;;1.65;;
30617;SDS011;17384;51.214;9.202;2023-03-14T00:18:10;3.90;;;1.40;;
30617;SDS011;17384;51.214;9.202;2023-03-14T00:20:35;12.63;;;1.70;;
30617;SDS011;17384;51.214;9.202;2023-03-14T00:23:01;1.13;;;1.02;;
30617;SDS011;17384;51.214;9.202;2023-03-14T00:25:27;2.60;;;1.40;;
30617;SDS011;17384;51.214;9.202;2023-03-14T00:27:53;4.43;;;1.67;;
30617;SDS011;17384;51.214;9.202;2023-03-14T00:30:18;1.92;;;1.35;;
30617;SDS011;17384;51.214;9.202;2023-03-14T00:32:44;2.38;;;1.40;;
30617;SDS011;17384;51.214;9.202;2023-03-14T00:35:10;5.03;;;1.77;;
30617;SDS011;17384;51.214;9.202;2023-03-14T00:37:35;7.45;;;1.75;;
30617;SDS011;17384;51.214;9.202;2023-03-14T00:40:00;6.03;;;1.60;;
30617;SDS011;17384;51.214;9.202;2023-03-14T00:42:26;3.15;;;1.27;;
30617;SDS011;17384;51.214;9.202;2023-03-14T00:44:52;2.85;;;1.50;;
30617;SDS011;17384;51.214;9.202;2023-03-14T00:47:17;3.33;;;1.60;;
30617;SDS011;17384;51.214;9.202;2023-03-14T00:49:43;4.30;;;1.42;;
30617;SDS011;17384;51.214;9.202;2023-03-14T00:52:09;4.25;;;1.25;;
30617;SDS011;17384;51.214;9.202;2023-03-14T00:54:34;3.47;;;1.30;;
30617;SDS011;17384;51.214;9.202;2023-03-14T00:57:00;2.90;;;1.23;;
30617;SDS011;17384;51.214;9.202;2023-03-14T00:59:25;5.75;;;1.58;;
30617;SDS011;17384;51.214;9.202;2023-03-14T01:01:51;1.65;;;1.23;;
30617;SDS011;17384;51.214;9.202;2023-03-14T01:04:16;2.53;;;1.27;;
30617;SDS011;17384;51.214;9.202;2023-03-14T01:06:42;6.05;;;1.63;;
30617;SDS011;17384;51.214;9.202;2023-03-14T01:09:07;3.72;;;1.52;;
30617;SDS011;17384;51.214;9.202;2023-03-14T01:11:33;1.38;;;1.20;;
30617;SDS011;17384;51.214;9.202;2023-03-14T01:14:00;3.88;;;1.42;;
30617;SDS011;17384;51.214;9.202;2023-03-14T01:16:27;2.03;;;1.20;;
30617;SDS011;17384;51.214;9.202;2023-03-14T01:18:54;2.72;;;1.33;;
30617;SDS011;17384;51.214;9.202;2023-03-14T01:21:21;3.83;;;1.60;;
30617;SDS011;17384;51.214;9.202;2023-03-14T01:23:48;3.95;;;1.40;;
30617;SDS011;17384;51.214;9.202;2023-03-14T01:26:16;9.43;;;1.67;;
30617;SDS011;17384;51.214;9.202;2023-03-14T01:28:46;2.30;;;1.55;;
30617;SDS011;17384;51.214;9.202;2023-03-14T01:31:12;2.08;;;1.67;;
30617;SDS011;17384;51.214;9.202;2023-03-14T01:33:38;5.18;;;1.63;;
30617;SDS011;17384;51.214;9.202;2023-03-14T01:36:05;2.47;;;1.40;;
30617;SDS011;17384;51.214;9.202;2023-03-14T01:38:31;6.70;;;2.30;;
30617;SDS011;17384;51.214;9.202;2023-03-14T01:40:58;3.50;;;1.55;;
30617;SDS011;17384;51.214;9.202;2023-03-14T01:43:24;2.53;;;1.65;;
30617;SDS011;17384;51.214;9.202;2023-03-14T01:54:16;2.90;;;1.63;;
30617;SDS011;17384;51.214;9.202;2023-03-14T01:56:56;3.17;;;1.92;;
30617;SDS011;17384;51.214;9.202;2023-03-14T01:59:27;2.55;;;1.70;;
30617;SDS011;17384;51.214;9.202;2023-03-14T02:01:55;4.45;;;1.30;;
30617;SDS011;17384;51.214;9.202;2023-03-14T02:04:21;5.60;;;1.83;;
30617;SDS011;17384;51.214;9.202;2023-03-14T02:06:59;8.10;;;1.70;;
30617;SDS011;17384;51.214;9.202;2023-03-14T02:09:30;6.93;;;1.73;;
30617;SDS011;17384;51.214;9.202;2023-03-14T02:11:56;8.48;;;1.60;;
30617;SDS011;17384;51.214;9.202;2023-03-14T02:14:28;5.50;;;1.60;;
30617;SDS011;17384;51.214;9.202;2023-03-14T02:16:58;6.40;;;1.92;;
30617;SDS011;17384;51.214;9.202;2023-03-14T02:19:30;7.97;;;2.20;;
30617;SDS011;17384;51.214;9.202;2023-03-14T02:22:15;7.30;;;1.83;;
30617;SDS011;17384;51.214;9.202;2023-03-14T02:25:43;6.57;;;2.08;;
30617;SDS011;17384;51.214;9.202;2023-03-14T02:27:50;7.00;;;2.70;;
30617;SDS011;17384;51.214;9.202;2023-03-14T02:32:50;9.85;;;2.58;;
30617;SDS011;17384;51.214;9.202;2023-03-14T02:35:21;8.00;;;2.20;;
30617;SDS011;17384;51.214;9.202;2023-03-14T02:37:51;8.57;;;2.05;;
30617;SDS011;17384;51.214;9.202;2023-03-14T02:40:18;3.78;;;1.80;;
30617;SDS011;17384;51.214;9.202;2023-03-14T02:42:44;6.13;;;2.83;;
30617;SDS011;17384;51.214;9.202;2023-03-14T02:47:36;5.00;;;2.00;;
30617;SDS011;17384;51.214;9.202;2023-03-14T02:50:11;8.85;;;1.95;;
30617;SDS011;17384;51.214;9.202;2023-03-14T02:52:39;11.07;;;2.67;;
30617;SDS011;17384;51.214;9.202;2023-03-14T02:55:05;6.15;;;2.20;;
30617;SDS011;17384;51.214;9.202;2023-03-14T02:57:31;7.30;;;2.10;;
30617;SDS011;17384;51.214;9.202;2023-03-14T02:59:59;6.95;;;2.10;;
30617;SDS011;17384;51.214;9.202;2023-03-14T03:02:26;5.47;;;2.05;;
30617;SDS011;17384;51.214;9.202;2023-03-14T03:04:52;7.45;;;2.10;;
30617;SDS011;17384;51.214;9.202;2023-03-14T03:07:18;7.28;;;3.65;;
30617;SDS011;17384;51.214;9.202;2023-03-14T03:09:44;10.10;;;3.22;;
30617;SDS011;17384;51.214;9.202;2023-03-14T03:12:09;7.88;;;2.47;;
30617;SDS011;17384;51.214;9.202;2023-03-14T03:14:35;9.68;;;2.75;;
30617;SDS011;17384;51.214;9.202;2023-03-14T03:17:02;8.68;;;2.65;;
30617;SDS011;17384;51.214;9.202;2023-03-14T03:19:28;10.48;;;2.80;;
30617;SDS011;17384;51.214;9.202;2023-03-14T03:21:54;5.65;;;2.70;;
30617;SDS011;17384;51.214;9.202;2023-03-14T03:24:19;5.03;;;2.75;;
30617;SDS011;17384;51.214;9.202;2023-03-14T03:26:44;7.93;;;2.78;;
30617;SDS011;17384;51.214;9.202;2023-03-14T03:29:10;12.00;;;2.70;;
30617;SDS011;17384;51.214;9.202;2023-03-14T03:31:36;3.70;;;1.85;;
30617;SDS011;17384;51.214;9.202;2023-03-14T03:34:03;7.45;;;2.55;;
30617;SDS011;17384;51.214;9.202;2023-03-14T03:36:28;5.25;;;2.30;;
30617;SDS011;17384;51.214;9.202;2023-03-14T03:38:53;3.42;;;1.90;;
30617;SDS011;17384;51.214;9.202;2023-03-14T03:41:19;7.40;;;2.28;;
30617;SDS011;17384;51.214;9.202;2023-03-14T03:43:44;3.65;;;1.90;;
30617;SDS011;17384;51.214;9.202;2023-03-14T03:46:10;4.35;;;2.15;;
30617;SDS011;17384;51.214;9.202;2023-03-14T03:48:35;3.70;;;1.92;;
30617;SDS011;17384;51.214;9.202;2023-03-14T03:51:01;8.68;;;2.00;;
30617;SDS011;17384;51.214;9.202;2023-03-14T03:53:27;4.40;;;1.73;;
30617;SDS011;17384;51.214;9.202;2023-03-14T03:55:52;4.38;;;1.92;;
30617;SDS011;17384;51.214;9.202;2023-03-14T03:58:18;5.43;;;1.83;;
30617;SDS011;17384;51.214;9.202;2023-03-14T04:00:43;5.45;;;1.88;;
30617;SDS011;17384;51.214;9.202;2023-03-14T04:03:09;6.20;;;2.00;;
30617;SDS011;17384;51.214;9.202;2023-03-14T04:05:34;4.10;;;1.42;;
30617;SDS011;17384;51.214;9.202;2023-03-14T04:08:00;4.97;;;1.90;;
30617;SDS011;17384;51.214;9.202;2023-03-14T04:10:26;2.47;;;1.67;;
30617;SDS011;17384;51.214;9.202;2023-03-14T04:12:51;4.35;;;1.50;;
30617;SDS011;17384;51.214;9.202;2023-03-14T04:15:17;5.45;;;2.10;;
30617;SDS011;17384;51.214;9.202;2023-03-14T04:17:43;5.47;;;2.30;;
30617;SDS011;17384;51.214;9.202;2023-03-14T04:20:08;4.38;;;1.75;;
30617;SDS011;17384;51.214;9.202;2023-03-14T04:22:36;5.97;;;2.35;;
30617;SDS011;17384;51.214;9.202;2023-03-14T04:25:02;4.93;;;2.20;;
30617;SDS011;17384;51.214;9.202;2023-03-14T04:27:28;4.32;;;2.15;;
30617;SDS011;17384;51.214;9.202;2023-03-14T04:29:54;5.78;;;2.30;;
30617;SDS011;17384;51.214;9.202;2023-03-14T04:32:19;11.02;;;2.20;;
30617;SDS011;17384;51.214;9.202;2023-03-14T04:34:45;8.93;;;2.38;;
30617;SDS011;17384;51.214;9.202;2023-03-14T04:37:10;11.48;;;3.38;;
30617;SDS011;17384;51.214;9.202;2023-03-14T04:39:36;6.70;;;2.22;;
30617;SDS011;17384;51.214;9.202;2023-03-14T04:42:01;4.60;;;2.10;;
30617;SDS011;17384;51.214;9.202;2023-03-14T04:44:27;6.75;;;2.28;;
30617;SDS011;17384;51.214;9.202;2023-03-14T04:46:52;10.43;;;2.13;;
30617;SDS011;17384;51.214;9.202;2023-03-14T04:49:18;9.25;;;2.35;;
30617;SDS011;17384;51.214;9.202;2023-03-14T04:51:43;6.38;;;2.28;;
30617;SDS011;17384;51.214;9.202;2023-03-14T04:54:09;12.55;;;3.17;;
30617;SDS011;17384;51.214;9.202;2023-03-14T04:56:34;12.85;;;2.85;;
30617;SDS011;17384;51.214;9.202;2023-03-14T04:59:02;5.63;;;2.45;;
30617;SDS011;17384;51.214;9.202;2023-03-14T05:01:28;4.43;;;2.25;;
30617;SDS011;17384;51.214;9.202;2023-03-14T05:03:53;11.93;;;2.40;;
30617;SDS011;17384;51.214;9.202;2023-03-14T05:06:19;8.68;;;2.35;;
30617;SDS011;17384;51.214;9.202;2023-03-14T05:08:44;11.00;;;2.85;;
30617;SDS011;17384;51.214;9.202;2023-03-14T05:11:09;10.57;;;3.03;;
30617;SDS011;17384;51.214;9.202;2023-03-14T05:13:36;9.25;;;2.85;;
30617;SDS011;17384;51.214;9.202;2023-03-14T05:16:05;11.40;;;2.47;;
30617;SDS011;17384;51.214;9.202;2023-03-14T05:18:32;9.82;;;2.58;;
30617;SDS011;17384;51.214;9.202;2023-03-14T05:20:58;10.82;;;3.58;;
30617;SDS011;17384;51.214;9.202;2023-03-14T05:23:23;10.80;;;2.45;;
30617;SDS011;17384;51.214;9.202;2023-03-14T05:25:49;11.23;;;2.20;;
30617;SDS011;17384;51.214;9.202;2023-03-14T05:28:14;8.40;;;2.53;;
30617;SDS011;17384;51.214;9.202;2023-03-14T05:30:40;6.53;;;2.25;;
30617;SDS011;17384;51.214;9.202;2023-03-14T05:33:05;7.70;;;2.30;;
30617;SDS011;17384;51.214;9.202;2023-03-14T05:35:31;9.25;;;2.65;;
30617;SDS011;17384;51.214;9.202;2023-03-14T05:37:56;9.70;;;2.70;;
30617;SDS011;17384;51.214;9.202;2023-03-14T05:40:22;5.82;;;2.15;;
30617;SDS011;17384;51.214;9.202;2023-03-14T05:42:47;9.82;;;2.35;;
30617;SDS011;17384;51.214;9.202;2023-03-14T05:45:12;14.05;;;3.35;;
30617;SDS011;17384;51.214;9.202;2023-03-14T05:47:38;9.23;;;2.83;;
30617;SDS011;17384;51.214;9.202;2023-03-14T05:50:03;13.32;;;4.68;;
30617;SDS011;17384;51.214;9.202;2023-03-14T05:52:29;8.07;;;3.38;;
30617;SDS011;17384;51.214;9.202;2023-03-14T05:54:55;9.35;;;3.33;;
30617;SDS011;17384;51.214;9.202;2023-03-14T05:57:21;5.35;;;2.35;;
30617;SDS011;17384;51.214;9.202;2023-03-14T05:59:46;8.05;;;3.10;;
30617;SDS011;17384;51.214;9.202;2023-03-14T06:02:11;9.70;;;2.00;;
30617;SDS011;17384;51.214;9.202;2023-03-14T06:04:37;6.22;;;2.45;;
30617;SDS011;17384;51.214;9.202;2023-03-14T06:07:02;5.28;;;1.85;;
30617;SDS011;17384;51.214;9.202;2023-03-14T06:09:28;5.93;;;1.73;;
30617;SDS011;17384;51.214;9.202;2023-03-14T06:11:53;11.07;;;2.50;;
30617;SDS011;17384;51.214;9.202;2023-03-14T06:14:19;8.30;;;2.28;;
30617;SDS011;17384;51.214;9.202;2023-03-14T06:16:44;4.22;;;1.80;;
30617;SDS011;17384;51.214;9.202;2023-03-14T06:19:10;6.78;;;1.95;;
30617;SDS011;17384;51.214;9.202;2023-03-14T06:21:36;3.90;;;1.70;;
30617;SDS011;17384;51.214;9.202;2023-03-14T06:24:01;6.30;;;2.13;;
30617;SDS011;17384;51.214;9.202;2023-03-14T06:26:27;7.07;;;1.98;;
30617;SDS011;17384;51.214;9.202;2023-03-14T06:28:53;7.70;;;1.65;;
30617;SDS011;17384;51.214;9.202;2023-03-14T06:31:19;3.70;;;2.10;;
30617;SDS011;17384;51.214;9.202;2023-03-14T06:33:44;6.47;;;1.83;;
30617;SDS011;17384;51.214;9.202;2023-03-14T06:36:10;5.95;;;1.80;;
30617;SDS011;17384;51.214;9.202;2023-03-14T06:38:36;4.10;;;1.58;;
30617;SDS011;17384;51.214;9.202;2023-03-14T06:41:05;6.07;;;1.85;;
30617;SDS011;17384;51.214;9.202;2023-03-14T06:43:31;3.45;;;1.50;;
30617;SDS011;17384;51.214;9.202;2023-03-14T06:45:56;7.88;;;1.80;;
30617;SDS011;17384;51.214;9.202;2023-03-14T06:48:21;4.75;;;1.73;;
30617;SDS011;17384;51.214;9.202;2023-03-14T06:50:48;6.15;;;2.80;;
30617;SDS011;17384;51.214;9.202;2023-03-14T06:53:13;8.18;;;1.83;;
30617;SDS011;17384;51.214;9.202;2023-03-14T06:55:39;6.80;;;1.73;;
30617;SDS011;17384;51.214;9.202;2023-03-14T06:58:04;4.80;;;1.50;;
30617;SDS011;17384;51.214;9.202;2023-03-14T07:00:32;7.07;;;1.38;;
30617;SDS011;17384;51.214;9.202;2023-03-14T07:02:58;5.15;;;1.67;;
30617;SDS011;17384;51.214;9.202;2023-03-14T07:05:24;6.25;;;1.70;;
30617;SDS011;17384;51.214;9.202;2023-03-14T07:07:49;4.20;;;1.50;;
30617;SDS011;17384;51.214;9.202;2023-03-14T07:10:15;2.13;;;1.30;;
30617;SDS011;17384;51.214;9.202;2023-03-14T07:12:41;3.33;;;1.70;;
30617;SDS011;17384;51.214;9.202;2023-03-14T07:15:06;5.22;;;1.98;;
30617;SDS011;17384;51.214;9.202;2023-03-14T07:17:32;6.00;;;1.40;;
30617;SDS011;17384;51.214;9.202;2023-03-14T07:19:57;3.22;;;1.23;;
30617;SDS011;17384;51.214;9.202;2023-03-14T07:22:24;3.33;;;1.30;;
30617;SDS011;17384;51.214;9.202;2023-03-14T07:24:50;4.22;;;1.30;;
30617;SDS011;17384;51.214;9.202;2023-03-14T07:27:15;4.55;;;1.20;;
30617;SDS011;17384;51.214;9.202;2023-03-14T07:29:40;1.98;;;1.38;;
30617;SDS011;17384;51.214;9.202;2023-03-14T07:32:06;2.78;;;1.02;;
30617;SDS011;17384;51.214;9.202;2023-03-14T07:34:33;5.53;;;1.17;;
30617;SDS011;17384;51.214;9.202;2023-03-14T07:36:58;0.88;;;0.82;;
30617;SDS011;17384;51.214;9.202;2023-03-14T07:39:24;1.98;;;1.40;;
30617;SDS011;17384;51.214;9.202;2023-03-14T07:41:50;2.00;;;1.52;;
30617;SDS011;17384;51.214;9.202;2023-03-14T07:44:15;3.42;;;1.23;;
30617;SDS011;17384;51.214;9.202;2023-03-14T07:46:41;1.90;;;1.20;;
30617;SDS011;17384;51.214;9.202;2023-03-14T07:49:09;1.73;;;1.00;;
30617;SDS011;17384;51.214;9.202;2023-03-14T07:51:34;3.97;;;1.10;;
30617;SDS011;17384;51.214;9.202;2023-03-14T07:54:00;6.57;;;0.98;;
30617;SDS011;17384;51.214;9.202;2023-03-14T07:56:25;2.13;;;1.10;;
30617;SDS011;17384;51.214;9.202;2023-03-14T07:58:51;2.47;;;1.30;;
30617;SDS011;17384;51.214;9.202;2023-03-14T08:01:16;2.20;;;1.25;;
30617;SDS011;17384;51.214;9.202;2023-03-14T08:03:41;3.35;;;1.30;;
30617;SDS011;17384;51.214;9.202;2023-03-14T08:06:07;1.02;;;0.80;;
30617;SDS011;17384;51.214;9.202;2023-03-14T08:08:32;3.80;;;1.30;;
30617;SDS011;17384;51.214;9.202;2023-03-14T08:11:02;3.25;;;1.10;;
30617;SDS011;17384;51.214;9.202;2023-03-14T08:13:29;1.80;;;0.85;;
30617;SDS011;17384;51.214;9.202;2023-03-14T08:15:54;5.03;;;1.10;;
30617;SDS011;17384;51.214;9.202;2023-03-14T08:18:20;4.28;;;0.90;;
30617;SDS011;17384;51.214;9.202;2023-03-14T08:20:45;2.88;;;1.00;;
30617;SDS011;17384;51.214;9.202;2023-03-14T08:23:11;2.45;;;1.02;;
30617;SDS011;17384;51.214;9.202;2023-03-14T08:25:37;0.70;;;0.70;;
30617;SDS011;17384;51.214;9.202;2023-03-14T08:28:03;2.05;;;0.80;;
30617;SDS011;17384;51.214;9.202;2023-03-14T08:30:29;1.48;;;0.80;;
30617;SDS011;17384;51.214;9.202;2023-03-14T08:32:56;1.13;;;0.68;;
30617;SDS011;17384;51.214;9.202;2023-03-14T08:35:23;3.97;;;0.80;;
30617;SDS011;17384;51.214;9.202;2023-03-14T08:37:49;0.75;;;0.75;;
30617;SDS011;17384;51.214;9.202;2023-03-14T08:40:15;1.02;;;0.70;;
30617;SDS011;17384;51.214;9.202;2023-03-14T08:42:42;1.92;;;0.70;;
30617;SDS011;17384;51.214;9.202;2023-03-14T08:45:08;1.35;;;0.63;;
30617;SDS011;17384;51.214;9.202;2023-03-14T08:47:35;0.80;;;0.70;;
30617;SDS011;17384;51.214;9.202;2023-03-14T08:50:01;0.88;;;0.73;;
30617;SDS011;17384;51.214;9.202;2023-03-14T08:52:29;2.53;;;0.75;;
30617;SDS011;17384;51.214;9.202;2023-03-14T08:54:55;2.90;;;0.77;;
30617;SDS011;17384;51.214;9.202;2023-03-14T08:57:21;1.02;;;0.60;;
30617;SDS011;17384;51.214;9.202;2023-03-14T08:59:47;1.00;;;0.70;;
30617;SDS011;17384;51.214;9.202;2023-03-14T09:02:12;1.67;;;0.70;;
30617;SDS011;17384;51.214;9.202;2023-03-14T09:04:38;1.73;;;0.93;;
30617;SDS011;17384;51.214;9.202;2023-03-14T09:07:03;3.00;;;0.90;;
30617;SDS011;17384;51.214;9.202;2023-03-14T09:09:29;2.75;;;0.55;;
30617;SDS011;17384;51.214;9.202;2023-03-14T09:11:56;2.05;;;0.63;;
30617;SDS011;17384;51.214;9.202;2023-03-14T09:14:21;1.75;;;0.70;;
30617;SDS011;17384;51.214;9.202;2023-03-14T09:16:47;1.02;;;0.60;;
30617;SDS011;17384;51.214;9.202;2023-03-14T09:19:13;1.10;;;0.70;;
30617;SDS011;17384;51.214;9.202;2023-03-14T09:21:38;2.58;;;0.50;;
30617;SDS011;17384;51.214;9.202;2023-03-14T09:24:04;2.17;;;0.70;;
30617;SDS011;17384;51.214;9.202;2023-03-14T09:26:30;1.35;;;0.60;;
30617;SDS011;17384;51.214;9.202;2023-03-14T09:28:56;3.00;;;0.80;;
30617;SDS011;17384;51.214;9.202;2023-03-14T09:31:21;3.35;;;0.90;;
30617;SDS011;17384;51.214;9.202;2023-03-14T09:33:46;3.00;;;1.27;;
30617;SDS011;17384;51.214;9.202;2023-03-14T09:36:12;1.27;;;0.70;;
30617;SDS011;17384;51.214;9.202;2023-03-14T09:38:38;1.00;;;0.52;;
30617;SDS011;17384;51.214;9.202;2023-03-14T09:41:09;1.42;;;0.63;;
30617;SDS011;17384;51.214;9.202;2023-03-14T09:43:39;3.50;;;1.38;;
30617;SDS011;17384;51.214;9.202;2023-03-14T09:46:07;0.77;;;0.70;;
30617;SDS011;17384;51.214;9.202;2023-03-14T09:48:36;2.15;;;0.85;;
30617;SDS011;17384;51.214;9.202;2023-03-14T09:51:03;1.00;;;0.55;;
30617;SDS011;17384;51.214;9.202;2023-03-14T09:53:40;3.78;;;0.70;;
30617;SDS011;17384;51.214;9.202;2023-03-14T09:56:18;2.05;;;0.60;;
30617;SDS011;17384;51.214;9.202;2023-03-14T09:58:54;3.03;;;0.70;;
30617;SDS011;17384;51.214;9.202;2023-03-14T10:01:26;1.95;;;0.68;;
30617;SDS011;17384;51.214;9.202;2023-03-14T10:03:57;0.70;;;0.70;;
30617;SDS011;17384;51.214;9.202;2023-03-14T10:06:27;2.22;;;0.50;;
30617;SDS011;17384;51.214;9.202;2023-03-14T10:08:54;2.90;;;0.80;;
30617;SDS011;17384;51.214;9.202;2023-03-14T10:11:22;3.17;;;0.60;;
30617;SDS011;17384;51.214;9.202;2023-03-14T10:16:32;1.05;;;0.60;;
30617;SDS011;17384;51.214;9.202;2023-03-14T10:19:03;2.78;;;0.73;;
30617;SDS011;17384;51.214;9.202;2023-03-14T10:21:36;3.95;;;0.80;;
30617;SDS011;17384;51.214;9.202;2023-03-14T10:24:07;1.48;;;0.65;;
30617;SDS011;17384;51.214;9.202;2023-03-14T10:26:34;2.78;;;1.58;;
30617;SDS011;17384;51.214;9.202;2023-03-14T10:29:08;0.90;;;0.77;;
30617;SDS011;17384;51.214;9.202;2023-03-14T10:32:10;0.60;;;0.60;;
30617;SDS011;17384;51.214;9.202;2023-03-14T10:34:34;1.65;;;0.60;;
30617;SDS011;17384;51.214;9.202;2023-03-14T10:42:29;2.38;;;0.50;;
30617;SDS011;17384;51.214;9.202;2023-03-14T10:45:00;1.02;;;0.70;;
30617;SDS011;17384;51.214;9.202;2023-03-14T10:47:29;0.50;;;0.50;;
30617;SDS011;17384;51.214;9.202;2023-03-14T10:49:55;0.47;;;0.47;;
30617;SDS011;17384;51.214;9.202;2023-03-14T10:52:28;0.52;;;0.50;;
30617;SDS011;17384;51.214;9.202;2023-03-14T10:55:08;0.88;;;0.57;;
30617;SDS011;17384;51.214;9.202;2023-03-14T10:57:39;0.73;;;0.50;;
30617;SDS011;17384;51.214;9.202;2023-03-14T11:00:06;3.90;;;0.60;;
30617;SDS011;17384;51.214;9.202;2023-03-14T11:08:09;2.35;;;0.50;;
30617;SDS011;17384;51.214;9.202;2023-03-14T11:10:40;2.65;;;0.60;;
30617;SDS011;17384;51.214;9.202;2023-03-14T11:13:22;1.70;;;0.65;;
30617;SDS011;17384;51.214;9.202;2023-03-14T11:21:50;0.50;;;0.50;;
30617;SDS011;17384;51.214;9.202;2023-03-14T11:27:40;1.38;;;0.77;;
30617;SDS011;17384;51.214;9.202;2023-03-14T11:33:13;1.17;;;0.70;;
30617;SDS011;17384;51.214;9.202;2023-03-14T11:35:58;0.90;;;0.50;;
30617;SDS011;17384;51.214;9.202;2023-03-14T11:38:33;2.08;;;0.70;;
30617;SDS011;17384;51.214;9.202;2023-03-14T11:41:00;0.65;;;0.60;;
30617;SDS011;17384;51.214;9.202;2023-03-14T11:43:28;1.20;;;0.55;;
30617;SDS011;17384;51.214;9.202;2023-03-14T11:46:09;2.05;;;0.50;;
30617;SDS011;17384;51.214;9.202;2023-03-14T11:48:44;1.38;;;0.70;;
30617;SDS011;17384;51.214;9.202;2023-03-14T11:51:24;4.28;;;1.00;;
30617;SDS011;17384;51.214;9.202;2023-03-14T11:53:58;2.10;;;0.65;;
30617;SDS011;17384;51.214;9.202;2023-03-14T11:59:55;1.70;;;0.65;;
30617;SDS011;17384;51.214;9.202;2023-03-14T12:05:33;0.93;;;0.70;;
30617;SDS011;17384;51.214;9.202;2023-03-14T12:13:13;1.20;;;0.50;;
30617;SDS011;17384;51.214;9.202;2023-03-14T12:15:54;0.40;;;0.40;;
30617;SDS011;17384;51.214;9.202;2023-03-14T12:18:34;0.60;;;0.40;;
30617;SDS011;17384;51.214;9.202;2023-03-14T12:21:04;0.40;;;0.40;;
30617;SDS011;17384;51.214;9.202;2023-03-14T12:23:42;1.80;;;0.50;;
30617;SDS011;17384;51.214;9.202;2023-03-14T12:28:37;0.52;;;0.52;;
30617;SDS011;17384;51.214;9.202;2023-03-14T12:42:01;0.60;;;0.60;;
30617;SDS011;17384;51.214;9.202;2023-03-14T12:46:59;0.70;;;0.70;;
30617;SDS011;17384;51.214;9.202;2023-03-14T12:49:31;0.50;;;0.50;;
30617;SDS011;17384;51.214;9.202;2023-03-14T12:52:00;0.50;;;0.50;;
30617;SDS011;17384;51.214;9.202;2023-03-14T13:02:44;2.70;;;0.70;;
30617;SDS011;17384;51.214;9.202;2023-03-14T13:05:19;3.03;;;1.25;;
30617;SDS011;17384;51.214;9.202;2023-03-14T13:15:27;0.90;;;0.90;;
30617;SDS011;17384;51.214;9.202;2023-03-14T13:18:09;1.05;;;0.95;;
30617;SDS011;17384;51.214;9.202;2023-03-14T13:20:41;0.70;;;0.70;;
30617;SDS011;17384;51.214;9.202;2023-03-14T13:23:23;0.70;;;0.70;;
30617;SDS011;17384;51.214;9.202;2023-03-14T13:25:56;0.60;;;0.60;;
30617;SDS011;17384;51.214;9.202;2023-03-14T13:28:24;1.35;;;0.73;;
30617;SDS011;17384;51.214;9.202;2023-03-14T13:30:54;0.50;;;0.50;;
30617;SDS011;17384;51.214;9.202;2023-03-14T13:33:24;0.70;;;0.70;;
30617;SDS011;17384;51.214;9.202;2023-03-14T13:36:00;0.70;;;0.70;;
30617;SDS011;17384;51.214;9.202;2023-03-14T13:38:30;2.30;;;0.68;;
30617;SDS011;17384;51.214;9.202;2023-03-14T13:40:58;1.00;;;0.80;;
30617;SDS011;17384;51.214;9.202;2023-03-14T13:43:32;0.80;;;0.70;;
30617;SDS011;17384;51.214;9.202;2023-03-14T13:46:15;0.77;;;0.77;;
30617;SDS011;17384;51.214;9.202;2023-03-14T13:48:48;2.13;;;1.02;;
30617;SDS011;17384;51.214;9.202;2023-03-14T13:51:17;4.13;;;0.95;;
30617;SDS011;17384;51.214;9.202;2023-03-14T13:53:47;4.95;;;1.02;;
30617;SDS011;17384;51.214;9.202;2023-03-14T13:56:20;6.90;;;1.90;;
30617;SDS011;17384;51.214;9.202;2023-03-14T13:58:48;3.05;;;1.33;;
30617;SDS011;17384;51.214;9.202;2023-03-14T14:01:15;5.35;;;1.20;;
30617;SDS011;17384;51.214;9.202;2023-03-14T14:03:44;5.38;;;1.30;;
30617;SDS011;17384;51.214;9.202;2023-03-14T14:08:46;4.70;;;1.70;;
30617;SDS011;17384;51.214;9.202;2023-03-14T14:11:31;9.88;;;1.73;;
30617;SDS011;17384;51.214;9.202;2023-03-14T14:14:05;10.02;;;1.70;;
30617;SDS011;17384;51.214;9.202;2023-03-14T14:16:33;14.20;;;2.22;;
30617;SDS011;17384;51.214;9.202;2023-03-14T14:19:02;6.78;;;2.22;;
30617;SDS011;17384;51.214;9.202;2023-03-14T14:21:28;5.78;;;2.40;;
30617;SDS011;17384;51.214;9.202;2023-03-14T14:23:54;7.30;;;2.08;;
30617;SDS011;17384;51.214;9.202;2023-03-14T14:26:19;9.77;;;2.00;;
30617;SDS011;17384;51.214;9.202;2023-03-14T14:28:45;10.23;;;2.03;;
30617;SDS011;17384;51.214;9.202;2023-03-14T14:33:43;9.82;;;2.53;;
30617;SDS011;17384;51.214;9.202;2023-03-14T14:36:15;6.50;;;1.90;;
30617;SDS011;17384;51.214;9.202;2023-03-14T14:38:51;9.30;;;2.05;;
30617;SDS011;17384;51.214;9.202;2023-03-14T14:41:18;5.95;;;2.05;;
30617;SDS011;17384;51.214;9.202;2023-03-14T14:43:43;9.88;;;1.65;;
30617;SDS011;17384;51.214;9.202;2023-03-14T14:46:09;13.57;;;3.38;;
30617;SDS011;17384;51.214;9.202;2023-03-14T14:48:41;11.75;;;3.20;;
30617;SDS011;17384;51.214;9.202;2023-03-14T14:51:07;7.35;;;2.22;;
30617;SDS011;17384;51.214;9.202;2023-03-14T14:53:41;6.05;;;2.72;;
30617;SDS011;17384;51.214;9.202;2023-03-14T14:56:25;12.43;;;2.40;;
30617;SDS011;17384;51.214;9.202;2023-03-14T14:58:57;12.85;;;2.72;;
30617;SDS011;17384;51.214;9.202;2023-03-14T15:03:55;14.15;;;2.72;;
30617;SDS011;17384;51.214;9.202;2023-03-14T15:06:21;8.55;;;2.58;;
30617;SDS011;17384;51.214;9.202;2023-03-14T15:08:52;3.33;;;1.98;;
30617;SDS011;17384;51.214;9.202;2023-03-14T15:11:20;11.32;;;2.42;;
30617;SDS011;17384;51.214;9.202;2023-03-14T15:13:48;7.75;;;2.97;;
30617;SDS011;17384;51.214;9.202;2023-03-14T15:16:18;12.75;;;3.33;;
30617;SDS011;17384;51.214;9.202;2023-03-14T15:18:56;9.32;;;2.95;;
30617;SDS011;17384;51.214;9.202;2023-03-14T15:21:23;11.68;;;3.10;;
30617;SDS011;17384;51.214;9.202;2023-03-14T15:23:51;17.05;;;4.55;;
30617;SDS011;17384;51.214;9.202;2023-03-14T15:26:20;15.68;;;3.00;;
30617;SDS011;17384;51.214;9.202;2023-03-14T15:28:48;16.00;;;4.05;;
30617;SDS011;17384;51.214;9.202;2023-03-14T15:31:14;25.50;;;3.72;;
30617;SDS011;17384;51.214;9.202;2023-03-14T15:33:42;9.75;;;2.85;;
30617;SDS011;17384;51.214;9.202;2023-03-14T15:36:16;18.77;;;3.90;;
30617;SDS011;17384;51.214;9.202;2023-03-14T15:38:44;14.02;;;2.70;;
30617;SDS011;17384;51.214;9.202;2023-03-14T15:41:09;13.57;;;2.85;;
30617;SDS011;17384;51.214;9.202;2023-03-14T15:43:35;18.17;;;2.88;;
30617;SDS011;17384;51.214;9.202;2023-03-14T15:46:00;15.90;;;3.35;;
30617;SDS011;17384;51.214;9.202;2023-03-14T15:48:26;12.93;;;3.03;;
30617;SDS011;17384;51.214;9.202;2023-03-14T15:50:51;15.38;;;5.07;;
30617;SDS011;17384;51.214;9.202;2023-03-14T15:53:16;14.65;;;2.78;;
30617;SDS011;17384;51.214;9.202;2023-03-14T15:55:42;16.95;;;3.03;;
30617;SDS011;17384;51.214;9.202;2023-03-14T15:58:09;11.23;;;2.80;;
30617;SDS011;17384;51.214;9.202;2023-03-14T16:00:41;16.63;;;3.35;;
30617;SDS011;17384;51.214;9.202;2023-03-14T16:03:07;18.50;;;3.45;;
30617;SDS011;17384;51.214;9.202;2023-03-14T16:05:32;16.45;;;3.28;;
30617;SDS011;17384;51.214;9.202;2023-03-14T16:07:57;14.27;;;3.15;;
30617;SDS011;17384;51.214;9.202;2023-03-14T16:10:23;14.93;;;2.88;;
30617;SDS011;17384;51.214;9.202;2023-03-14T16:12:48;10.20;;;2.90;;
30617;SDS011;17384;51.214;9.202;2023-03-14T16:15:14;14.18;;;2.92;;
30617;SDS011;17384;51.214;9.202;2023-03-14T16:17:48;11.02;;;3.25;;
30617;SDS011;17384;51.214;9.202;2023-03-14T16:20:37;9.40;;;2.45;;